PWSweather.com
Personal Weather Stations
Station Observations
N6QIH
Larry & Sandy Wx Now Hawaii, Ewa Beach, HI 96706

Larry & Sandy Wx Now HawaiiEwa Beach, HI 96706

Lat: 21.327716, Lon: -158.028032

Elevation: 29

Station Type: Davis Pro 2 Solar

http://www.CoCoRAHS.org

High Low Average
Temperature 82.3°F27.9°C 64.3°F17.9°C 70.3°F21.3°C
Dew Point 65.2°F18.4°C 60.0°F15.6°C 61.6°F16.4°C
Winds 3.1 mph 5.0 kmh Calm Calm Calm ENECalm ENE
Wind Gusts 7.0 mph11.3 kmh -- 1.0 mph1.6 kmh
Humidity 86% 49% 75%
Pressure 30.19 in1022.4 mb 30.12 in1020.0 mb -
Precipitation 0.00 in0.0 mm - -
Hour Temp Dew Point Humidity Winds Wind Gusts Pressure Precip Precip Rate Daily Precip Total
12:00 AM 66.3°F19.1°C 60.3°F15.7°C 81% Calm Calm -- 30.19 in1022.4 mb 0.00 in0.0 mm 0.00 in/hr0.0 mm/hr 0.00 in0.0 mm
12:10 AM 66.3°F19.1°C 60.3°F15.7°C 81% Calm Calm -- 30.19 in1022.4 mb 0.00 in0.0 mm 0.00 in/hr0.0 mm/hr 0.00 in0.0 mm
12:20 AM 66.3°F19.1°C 60.3°F15.7°C 81% Calm Calm -- 30.19 in1022.4 mb 0.00 in0.0 mm 0.00 in/hr0.0 mm/hr 0.00 in0.0 mm
12:30 AM 66.0°F18.9°C 60.0°F15.6°C 81% Calm Calm -- 30.18 in1022.0 mb 0.00 in0.0 mm 0.00 in/hr0.0 mm/hr 0.00 in0.0 mm
12:40 AM 65.6°F18.7°C 60.0°F15.6°C 82% Calm Calm -- 30.18 in1022.0 mb 0.00 in0.0 mm 0.00 in/hr0.0 mm/hr 0.00 in0.0 mm
12:50 AM 65.3°F18.5°C 60.0°F15.6°C 83% Calm Calm -- 30.18 in1022.0 mb 0.00 in0.0 mm 0.00 in/hr0.0 mm/hr 0.00 in0.0 mm
01:00 AM 65.2°F18.4°C 60.2°F15.7°C 84% Calm Calm -- 30.18 in1022.0 mb 0.00 in0.0 mm 0.00 in/hr0.0 mm/hr 0.00 in0.0 mm
01:10 AM 65.5°F18.6°C 60.5°F15.8°C 84% Calm Calm -- 30.18 in1022.0 mb 0.00 in0.0 mm 0.00 in/hr0.0 mm/hr 0.00 in0.0 mm
01:20 AM 66.0°F18.9°C 61.0°F16.1°C 84% Calm Calm -- 30.17 in1021.7 mb 0.00 in0.0 mm 0.00 in/hr0.0 mm/hr 0.00 in0.0 mm
01:30 AM 66.6°F19.2°C 61.3°F16.3°C 83% Calm Calm -- 30.17 in1021.7 mb 0.00 in0.0 mm 0.00 in/hr0.0 mm/hr 0.00 in0.0 mm
01:40 AM 67.1°F19.5°C 61.4°F16.3°C 82% 0.2 mph NE0.3 kmh NE -- 30.17 in1021.7 mb 0.00 in0.0 mm 0.00 in/hr0.0 mm/hr 0.00 in0.0 mm
01:50 AM 67.1°F19.5°C 61.4°F16.3°C 82% Calm Calm -- 30.17 in1021.7 mb 0.00 in0.0 mm 0.00 in/hr0.0 mm/hr 0.00 in0.0 mm
02:00 AM 66.9°F19.4°C 61.2°F16.2°C 82% 0.2 mph NE0.3 kmh NE 2.0 mph3.2 kmh 30.17 in1021.7 mb 0.00 in0.0 mm 0.00 in/hr0.0 mm/hr 0.00 in0.0 mm
02:10 AM 66.8°F19.3°C 61.1°F16.2°C 82% Calm Calm 1.0 mph1.6 kmh 30.16 in1021.3 mb 0.00 in0.0 mm 0.00 in/hr0.0 mm/hr 0.00 in0.0 mm
02:20 AM 66.4°F19.1°C 60.7°F15.9°C 82% Calm Calm -- 30.16 in1021.3 mb 0.00 in0.0 mm 0.00 in/hr0.0 mm/hr 0.00 in0.0 mm
02:30 AM 66.3°F19.1°C 61.0°F16.1°C 83% Calm Calm -- 30.15 in1021.0 mb 0.00 in0.0 mm 0.00 in/hr0.0 mm/hr 0.00 in0.0 mm
02:40 AM 66.3°F19.1°C 61.0°F16.1°C 83% Calm Calm -- 30.15 in1021.0 mb 0.00 in0.0 mm 0.00 in/hr0.0 mm/hr 0.00 in0.0 mm
02:50 AM 66.1°F18.9°C 60.8°F16.0°C 83% Calm Calm 1.0 mph1.6 kmh 30.14 in1020.7 mb 0.00 in0.0 mm 0.00 in/hr0.0 mm/hr 0.00 in0.0 mm
03:00 AM 66.0°F18.9°C 60.7°F15.9°C 83% Calm Calm 1.0 mph1.6 kmh 30.14 in1020.7 mb 0.00 in0.0 mm 0.00 in/hr0.0 mm/hr 0.00 in0.0 mm
03:10 AM 65.8°F18.8°C 60.8°F16.0°C 84% 0.1 mph NE0.2 kmh NE 1.0 mph1.6 kmh 30.14 in1020.7 mb 0.00 in0.0 mm 0.00 in/hr0.0 mm/hr 0.00 in0.0 mm
03:20 AM 65.6°F18.7°C 60.6°F15.9°C 84% Calm Calm -- 30.14 in1020.7 mb 0.00 in0.0 mm 0.00 in/hr0.0 mm/hr 0.00 in0.0 mm
03:30 AM 65.5°F18.6°C 60.5°F15.8°C 84% Calm Calm -- 30.14 in1020.7 mb 0.00 in0.0 mm 0.00 in/hr0.0 mm/hr 0.00 in0.0 mm
03:40 AM 65.6°F18.7°C 60.6°F15.9°C 84% Calm Calm -- 30.14 in1020.7 mb 0.00 in0.0 mm 0.00 in/hr0.0 mm/hr 0.00 in0.0 mm
03:50 AM 65.6°F18.7°C 60.6°F15.9°C 84% Calm Calm -- 30.14 in1020.7 mb 0.00 in0.0 mm 0.00 in/hr0.0 mm/hr 0.00 in0.0 mm
04:00 AM 65.5°F18.6°C 60.5°F15.8°C 84% Calm Calm -- 30.14 in1020.7 mb 0.00 in0.0 mm 0.00 in/hr0.0 mm/hr 0.00 in0.0 mm
04:10 AM 65.0°F18.3°C 60.0°F15.6°C 84% Calm Calm -- 30.13 in1020.3 mb 0.00 in0.0 mm 0.00 in/hr0.0 mm/hr 0.00 in0.0 mm
04:20 AM 65.1°F18.4°C 60.5°F15.8°C 85% Calm Calm -- 30.13 in1020.3 mb 0.00 in0.0 mm 0.00 in/hr0.0 mm/hr 0.00 in0.0 mm
04:30 AM 65.2°F18.4°C 60.2°F15.7°C 84% Calm Calm -- 30.13 in1020.3 mb 0.00 in0.0 mm 0.00 in/hr0.0 mm/hr 0.00 in0.0 mm
04:40 AM 65.3°F18.5°C 60.3°F15.7°C 84% Calm Calm -- 30.13 in1020.3 mb 0.00 in0.0 mm 0.00 in/hr0.0 mm/hr 0.00 in0.0 mm
04:50 AM 65.2°F18.4°C 60.2°F15.7°C 84% Calm Calm -- 30.12 in1020.0 mb 0.00 in0.0 mm 0.00 in/hr0.0 mm/hr 0.00 in0.0 mm
05:00 AM 64.9°F18.3°C 60.2°F15.7°C 85% Calm Calm -- 30.12 in1020.0 mb 0.00 in0.0 mm 0.00 in/hr0.0 mm/hr 0.00 in0.0 mm
05:10 AM 64.8°F18.2°C 60.1°F15.6°C 85% Calm Calm -- 30.12 in1020.0 mb 0.00 in0.0 mm 0.00 in/hr0.0 mm/hr 0.00 in0.0 mm
05:20 AM 64.7°F18.2°C 60.1°F15.6°C 85% Calm Calm -- 30.12 in1020.0 mb 0.00 in0.0 mm 0.00 in/hr0.0 mm/hr 0.00 in0.0 mm
05:30 AM 64.8°F18.2°C 60.5°F15.8°C 86% Calm Calm -- 30.12 in1020.0 mb 0.00 in0.0 mm 0.00 in/hr0.0 mm/hr 0.00 in0.0 mm
05:40 AM 64.7°F18.2°C 60.4°F15.8°C 86% Calm Calm -- 30.12 in1020.0 mb 0.00 in0.0 mm 0.00 in/hr0.0 mm/hr 0.00 in0.0 mm
05:50 AM 64.3°F17.9°C 60.0°F15.6°C 86% Calm Calm -- 30.13 in1020.3 mb 0.00 in0.0 mm 0.00 in/hr0.0 mm/hr 0.00 in0.0 mm
06:00 AM 64.3°F17.9°C 60.0°F15.6°C 86% Calm Calm -- 30.13 in1020.3 mb 0.00 in0.0 mm 0.00 in/hr0.0 mm/hr 0.00 in0.0 mm
06:10 AM 64.7°F18.2°C 60.4°F15.8°C 86% Calm Calm -- 30.14 in1020.7 mb 0.00 in0.0 mm 0.00 in/hr0.0 mm/hr 0.00 in0.0 mm
06:20 AM 64.7°F18.2°C 60.4°F15.8°C 86% Calm Calm -- 30.14 in1020.7 mb 0.00 in0.0 mm 0.00 in/hr0.0 mm/hr 0.00 in0.0 mm
06:30 AM 64.8°F18.2°C 60.5°F15.8°C 86% 0.1 mph NE0.2 kmh NE -- 30.14 in1020.7 mb 0.00 in0.0 mm 0.00 in/hr0.0 mm/hr 0.00 in0.0 mm
06:40 AM 64.8°F18.2°C 60.5°F15.8°C 86% Calm Calm -- 30.15 in1021.0 mb 0.00 in0.0 mm 0.00 in/hr0.0 mm/hr 0.00 in0.0 mm
06:50 AM 64.8°F18.2°C 60.5°F15.8°C 86% Calm Calm 1.0 mph1.6 kmh 30.15 in1021.0 mb 0.00 in0.0 mm 0.00 in/hr0.0 mm/hr 0.00 in0.0 mm
07:00 AM 65.0°F18.3°C 60.4°F15.8°C 85% Calm Calm -- 30.16 in1021.3 mb 0.00 in0.0 mm 0.00 in/hr0.0 mm/hr 0.00 in0.0 mm
07:10 AM 65.2°F18.4°C 60.6°F15.9°C 85% Calm Calm -- 30.16 in1021.3 mb 0.00 in0.0 mm 0.00 in/hr0.0 mm/hr 0.00 in0.0 mm
07:20 AM 65.2°F18.4°C 60.6°F15.9°C 85% Calm Calm -- 30.16 in1021.3 mb 0.00 in0.0 mm 0.00 in/hr0.0 mm/hr 0.00 in0.0 mm
07:30 AM 65.3°F18.5°C 60.7°F15.9°C 85% 0.3 mph NE0.5 kmh NE 2.0 mph3.2 kmh 30.16 in1021.3 mb 0.00 in0.0 mm 0.00 in/hr0.0 mm/hr 0.00 in0.0 mm
07:40 AM 65.5°F18.6°C 60.9°F16.1°C 85% Calm Calm -- 30.16 in1021.3 mb 0.00 in0.0 mm 0.00 in/hr0.0 mm/hr 0.00 in0.0 mm
07:50 AM 65.8°F18.8°C 61.2°F16.2°C 85% Calm Calm -- 30.16 in1021.3 mb 0.00 in0.0 mm 0.00 in/hr0.0 mm/hr 0.00 in0.0 mm
08:00 AM 66.3°F19.1°C 61.7°F16.5°C 85% Calm Calm -- 30.16 in1021.3 mb 0.00 in0.0 mm 0.00 in/hr0.0 mm/hr 0.00 in0.0 mm
08:10 AM 67.1°F19.5°C 62.1°F16.7°C 84% Calm Calm -- 30.17 in1021.7 mb 0.00 in0.0 mm 0.00 in/hr0.0 mm/hr 0.00 in0.0 mm
08:20 AM 67.8°F19.9°C 62.4°F16.9°C 83% Calm Calm -- 30.17 in1021.7 mb 0.00 in0.0 mm 0.00 in/hr0.0 mm/hr 0.00 in0.0 mm
08:30 AM 68.6°F20.3°C 63.2°F17.3°C 83% Calm Calm 1.0 mph1.6 kmh 30.18 in1022.0 mb 0.00 in0.0 mm 0.00 in/hr0.0 mm/hr 0.00 in0.0 mm
08:40 AM 69.3°F20.7°C 63.6°F17.6°C 82% Calm Calm -- 30.18 in1022.0 mb 0.00 in0.0 mm 0.00 in/hr0.0 mm/hr 0.00 in0.0 mm
08:50 AM 70.8°F21.6°C 65.1°F18.4°C 82% Calm Calm -- 30.18 in1022.0 mb 0.00 in0.0 mm 0.00 in/hr0.0 mm/hr 0.00 in0.0 mm
09:00 AM 73.1°F22.8°C 65.1°F18.4°C 76% 0.1 mph NE0.2 kmh NE -- 30.18 in1022.0 mb 0.00 in0.0 mm 0.00 in/hr0.0 mm/hr 0.00 in0.0 mm
09:10 AM 74.9°F23.8°C 65.2°F18.4°C 72% 0.1 mph NE0.2 kmh NE 2.0 mph3.2 kmh 30.18 in1022.0 mb 0.00 in0.0 mm 0.00 in/hr0.0 mm/hr 0.00 in0.0 mm
09:20 AM 75.8°F24.3°C 64.0°F17.8°C 67% 1.3 mph S2.1 kmh S 7.0 mph11.3 kmh 30.18 in1022.0 mb 0.00 in0.0 mm 0.00 in/hr0.0 mm/hr 0.00 in0.0 mm
09:30 AM 76.4°F24.7°C 64.2°F17.9°C 66% 0.8 mph SSW1.3 kmh SSW 3.0 mph4.8 kmh 30.19 in1022.4 mb 0.00 in0.0 mm 0.00 in/hr0.0 mm/hr 0.00 in0.0 mm
09:40 AM 77.5°F25.3°C 64.4°F18.0°C 64% 0.1 mph SE0.2 kmh SE 2.0 mph3.2 kmh 30.19 in1022.4 mb 0.00 in0.0 mm 0.00 in/hr0.0 mm/hr 0.00 in0.0 mm
09:50 AM 78.1°F25.6°C 63.6°F17.6°C 61% 2.1 mph ESE3.4 kmh ESE 5.0 mph8.0 kmh 30.19 in1022.4 mb 0.00 in0.0 mm 0.00 in/hr0.0 mm/hr 0.00 in0.0 mm
10:00 AM 77.6°F25.3°C 63.6°F17.6°C 62% 0.7 mph E1.1 kmh E 3.0 mph4.8 kmh 30.19 in1022.4 mb 0.00 in0.0 mm 0.00 in/hr0.0 mm/hr 0.00 in0.0 mm
10:10 AM 77.0°F25.0°C 62.5°F16.9°C 61% 1.6 mph SE2.6 kmh SE 3.0 mph4.8 kmh 30.19 in1022.4 mb 0.00 in0.0 mm 0.00 in/hr0.0 mm/hr 0.00 in0.0 mm
10:20 AM 78.1°F25.6°C 62.1°F16.7°C 58% 2.8 mph ENE4.5 kmh ENE 5.0 mph8.0 kmh 30.19 in1022.4 mb 0.00 in0.0 mm 0.00 in/hr0.0 mm/hr 0.00 in0.0 mm
10:30 AM 77.4°F25.2°C 61.9°F16.6°C 59% 1.1 mph ESE1.8 kmh ESE 4.0 mph6.4 kmh 30.19 in1022.4 mb 0.00 in0.0 mm 0.00 in/hr0.0 mm/hr 0.00 in0.0 mm
10:40 AM 78.9°F26.1°C 62.8°F17.1°C 58% 0.4 mph SE0.6 kmh SE 2.0 mph3.2 kmh 30.19 in1022.4 mb 0.00 in0.0 mm 0.00 in/hr0.0 mm/hr 0.00 in0.0 mm
10:50 AM 80.3°F26.8°C 63.6°F17.6°C 57% 0.8 mph SW1.3 kmh SW 2.0 mph3.2 kmh 30.19 in1022.4 mb 0.00 in0.0 mm 0.00 in/hr0.0 mm/hr 0.00 in0.0 mm
11:00 AM 80.3°F26.8°C 63.7°F17.6°C 57% 1.6 mph NE2.6 kmh NE 4.0 mph6.4 kmh 30.19 in1022.4 mb 0.00 in0.0 mm 0.00 in/hr0.0 mm/hr 0.00 in0.0 mm
11:10 AM 79.8°F26.6°C 62.7°F17.1°C 56% 2.5 mph ENE4.0 kmh ENE 4.0 mph6.4 kmh 30.18 in1022.0 mb 0.00 in0.0 mm 0.00 in/hr0.0 mm/hr 0.00 in0.0 mm
11:20 AM 79.4°F26.3°C 63.8°F17.7°C 59% 0.1 mph ENE0.2 kmh ENE 3.0 mph4.8 kmh 30.17 in1021.7 mb 0.00 in0.0 mm 0.00 in/hr0.0 mm/hr 0.00 in0.0 mm
11:30 AM 80.1°F26.7°C 64.5°F18.1°C 59% 0.7 mph NE1.1 kmh NE 4.0 mph6.4 kmh 30.17 in1021.7 mb 0.00 in0.0 mm 0.00 in/hr0.0 mm/hr 0.00 in0.0 mm
11:40 AM 80.4°F26.9°C 62.2°F16.8°C 54% 2.0 mph ESE3.2 kmh ESE 4.0 mph6.4 kmh 30.17 in1021.7 mb 0.00 in0.0 mm 0.00 in/hr0.0 mm/hr 0.00 in0.0 mm
11:50 AM 79.8°F26.6°C 63.2°F17.3°C 57% 1.6 mph SE2.6 kmh SE 4.0 mph6.4 kmh 30.17 in1021.7 mb 0.00 in0.0 mm 0.00 in/hr0.0 mm/hr 0.00 in0.0 mm
12:00 PM 80.9°F27.2°C 61.6°F16.4°C 52% 1.7 mph ENE2.7 kmh ENE 6.0 mph9.7 kmh 30.16 in1021.3 mb 0.00 in0.0 mm 0.00 in/hr0.0 mm/hr 0.00 in0.0 mm
12:10 PM 80.3°F26.8°C 62.7°F17.1°C 55% 1.9 mph SE3.1 kmh SE 4.0 mph6.4 kmh 30.16 in1021.3 mb 0.00 in0.0 mm 0.00 in/hr0.0 mm/hr 0.00 in0.0 mm
12:20 PM 79.4°F26.3°C 61.9°F16.6°C 55% 3.1 mph ESE5.0 kmh ESE 5.0 mph8.0 kmh 30.16 in1021.3 mb 0.00 in0.0 mm 0.00 in/hr0.0 mm/hr 0.00 in0.0 mm
12:30 PM 79.6°F26.4°C 62.0°F16.7°C 55% 0.4 mph WSW0.6 kmh WSW 1.0 mph1.6 kmh 30.15 in1021.0 mb 0.00 in0.0 mm 0.00 in/hr0.0 mm/hr 0.00 in0.0 mm
12:40 PM 80.3°F26.8°C 62.7°F17.1°C 55% 1.1 mph W1.8 kmh W 3.0 mph4.8 kmh 30.14 in1020.7 mb 0.00 in0.0 mm 0.00 in/hr0.0 mm/hr 0.00 in0.0 mm
12:50 PM 80.8°F27.1°C 62.1°F16.7°C 53% 2.4 mph SE3.9 kmh SE 4.0 mph6.4 kmh 30.14 in1020.7 mb 0.00 in0.0 mm 0.00 in/hr0.0 mm/hr 0.00 in0.0 mm
01:00 PM 80.5°F26.9°C 61.8°F16.6°C 53% 2.9 mph ESE4.7 kmh ESE 4.0 mph6.4 kmh 30.14 in1020.7 mb 0.00 in0.0 mm 0.00 in/hr0.0 mm/hr 0.00 in0.0 mm
01:10 PM 80.7°F27.1°C 64.1°F17.8°C 57% 1.0 mph NNW1.6 kmh NNW 1.0 mph1.6 kmh 30.13 in1020.3 mb 0.00 in0.0 mm 0.00 in/hr0.0 mm/hr 0.00 in0.0 mm
01:20 PM 80.4°F26.9°C 63.3°F17.4°C 56% 1.3 mph ESE2.1 kmh ESE 4.0 mph6.4 kmh 30.12 in1020.0 mb 0.00 in0.0 mm 0.00 in/hr0.0 mm/hr 0.00 in0.0 mm
01:30 PM 82.3°F27.9°C 61.2°F16.2°C 49% 1.9 mph E3.1 kmh E 3.0 mph4.8 kmh 30.12 in1020.0 mb 0.00 in0.0 mm 0.00 in/hr0.0 mm/hr 0.00 in0.0 mm
01:40 PM 83.3°F28.5°C 62.7°F17.1°C 50% 1.8 mph E2.9 kmh E 4.0 mph6.4 kmh 30.11 in1019.6 mb 0.00 in0.0 mm 0.00 in/hr0.0 mm/hr 0.00 in0.0 mm
01:50 PM 84.3°F29.1°C 62.5°F16.9°C 48% 1.2 mph NE1.9 kmh NE 4.0 mph6.4 kmh 30.11 in1019.6 mb 0.00 in0.0 mm 0.00 in/hr0.0 mm/hr 0.00 in0.0 mm
02:00 PM 83.4°F28.6°C 64.5°F18.1°C 53% 1.9 mph E3.1 kmh E 6.0 mph9.7 kmh 30.11 in1019.6 mb 0.00 in0.0 mm 0.00 in/hr0.0 mm/hr 0.00 in0.0 mm
02:10 PM 82.8°F28.2°C 62.2°F16.8°C 50% 4.3 mph SW6.9 kmh SW 11.0 mph17.7 kmh 30.11 in1019.6 mb 0.00 in0.0 mm 0.00 in/hr0.0 mm/hr 0.00 in0.0 mm
02:20 PM 83.0°F28.3°C 61.9°F16.6°C 49% 1.1 mph NE1.8 kmh NE 2.0 mph3.2 kmh 30.10 in1019.3 mb 0.00 in0.0 mm 0.00 in/hr0.0 mm/hr 0.00 in0.0 mm
02:30 PM 81.2°F27.3°C 61.9°F16.6°C 52% 1.0 mph ENE1.6 kmh ENE 3.0 mph4.8 kmh 30.10 in1019.3 mb 0.00 in0.0 mm 0.00 in/hr0.0 mm/hr 0.00 in0.0 mm
02:40 PM 80.7°F27.1°C 63.5°F17.5°C 56% 2.4 mph N3.9 kmh N 3.0 mph4.8 kmh 30.09 in1019.0 mb 0.00 in0.0 mm 0.00 in/hr0.0 mm/hr 0.00 in0.0 mm
02:50 PM 79.6°F26.4°C 63.0°F17.2°C 57% 0.5 mph NE0.8 kmh NE 2.0 mph3.2 kmh 30.09 in1019.0 mb 0.00 in0.0 mm 0.00 in/hr0.0 mm/hr 0.00 in0.0 mm
03:00 PM 79.4°F26.3°C 62.3°F16.8°C 56% 1.1 mph NE1.8 kmh NE 3.0 mph4.8 kmh 30.09 in1019.0 mb 0.00 in0.0 mm 0.00 in/hr0.0 mm/hr 0.00 in0.0 mm
03:10 PM 79.2°F26.2°C 62.1°F16.7°C 56% 0.7 mph E1.1 kmh E 3.0 mph4.8 kmh 30.09 in1019.0 mb 0.00 in0.0 mm 0.00 in/hr0.0 mm/hr 0.00 in0.0 mm
03:20 PM 79.8°F26.6°C 61.7°F16.5°C 54% 0.6 mph ENE1.0 kmh ENE 2.0 mph3.2 kmh 30.09 in1019.0 mb 0.00 in0.0 mm 0.00 in/hr0.0 mm/hr 0.00 in0.0 mm
03:30 PM 80.7°F27.1°C 63.5°F17.5°C 56% 0.8 mph E1.3 kmh E 1.0 mph1.6 kmh 30.09 in1019.0 mb 0.00 in0.0 mm 0.00 in/hr0.0 mm/hr 0.00 in0.0 mm
03:40 PM 80.9°F27.2°C 60.5°F15.8°C 50% 1.7 mph SSW2.7 kmh SSW 3.0 mph4.8 kmh 30.09 in1019.0 mb 0.00 in0.0 mm 0.00 in/hr0.0 mm/hr 0.00 in0.0 mm
03:50 PM 80.5°F26.9°C 62.8°F17.1°C 55% 1.0 mph E1.6 kmh E 5.0 mph8.0 kmh 30.09 in1019.0 mb 0.00 in0.0 mm 0.00 in/hr0.0 mm/hr 0.00 in0.0 mm
04:00 PM 79.8°F26.6°C 62.7°F17.1°C 56% 1.5 mph SE2.4 kmh SE 2.0 mph3.2 kmh 30.09 in1019.0 mb 0.00 in0.0 mm 0.00 in/hr0.0 mm/hr 0.00 in0.0 mm
04:10 PM 79.1°F26.2°C 62.6°F17.0°C 57% 2.2 mph E3.5 kmh E 2.0 mph3.2 kmh 30.09 in1019.0 mb 0.00 in0.0 mm 0.00 in/hr0.0 mm/hr 0.00 in0.0 mm
04:20 PM 79.1°F26.2°C 63.5°F17.5°C 59% 0.5 mph ENE0.8 kmh ENE 3.0 mph4.8 kmh 30.09 in1019.0 mb 0.00 in0.0 mm 0.00 in/hr0.0 mm/hr 0.00 in0.0 mm
04:30 PM 78.3°F25.7°C 62.3°F16.8°C 58% 1.7 mph NE2.7 kmh NE 3.0 mph4.8 kmh 30.09 in1019.0 mb 0.00 in0.0 mm 0.00 in/hr0.0 mm/hr 0.00 in0.0 mm
04:40 PM 78.1°F25.6°C 62.6°F17.0°C 59% 2.0 mph E3.2 kmh E 3.0 mph4.8 kmh 30.10 in1019.3 mb 0.00 in0.0 mm 0.00 in/hr0.0 mm/hr 0.00 in0.0 mm
04:50 PM 79.0°F26.1°C 62.9°F17.2°C 58% 1.3 mph E2.1 kmh E 5.0 mph8.0 kmh 30.10 in1019.3 mb 0.00 in0.0 mm 0.00 in/hr0.0 mm/hr 0.00 in0.0 mm
05:00 PM 79.0°F26.1°C 62.5°F16.9°C 57% 1.5 mph E2.4 kmh E 3.0 mph4.8 kmh 30.11 in1019.6 mb 0.00 in0.0 mm 0.00 in/hr0.0 mm/hr 0.00 in0.0 mm
05:10 PM 79.1°F26.2°C 63.1°F17.3°C 58% 1.9 mph E3.1 kmh E 4.0 mph6.4 kmh 30.11 in1019.6 mb 0.00 in0.0 mm 0.00 in/hr0.0 mm/hr 0.00 in0.0 mm
05:20 PM 78.6°F25.9°C 62.1°F16.7°C 57% 1.0 mph ENE1.6 kmh ENE 2.0 mph3.2 kmh 30.11 in1019.6 mb 0.00 in0.0 mm 0.00 in/hr0.0 mm/hr 0.00 in0.0 mm
05:30 PM 78.8°F26.0°C 62.8°F17.1°C 58% 1.2 mph E1.9 kmh E 3.0 mph4.8 kmh 30.11 in1019.6 mb 0.00 in0.0 mm 0.00 in/hr0.0 mm/hr 0.00 in0.0 mm
05:40 PM 77.6°F25.3°C 62.6°F17.0°C 60% 1.1 mph E1.8 kmh E 4.0 mph6.4 kmh 30.11 in1019.6 mb 0.00 in0.0 mm 0.00 in/hr0.0 mm/hr 0.00 in0.0 mm
05:50 PM 76.8°F24.9°C 62.3°F16.8°C 61% 1.1 mph NW1.8 kmh NW 3.0 mph4.8 kmh 30.11 in1019.6 mb 0.00 in0.0 mm 0.00 in/hr0.0 mm/hr 0.00 in0.0 mm
06:00 PM 75.8°F24.3°C 61.9°F16.6°C 62% 0.6 mph S1.0 kmh S 2.0 mph3.2 kmh 30.11 in1019.6 mb 0.00 in0.0 mm 0.00 in/hr0.0 mm/hr 0.00 in0.0 mm
06:10 PM 75.4°F24.1°C 62.4°F16.9°C 64% 0.2 mph SE0.3 kmh SE 1.0 mph1.6 kmh 30.12 in1020.0 mb 0.00 in0.0 mm 0.00 in/hr0.0 mm/hr 0.00 in0.0 mm
06:20 PM 74.9°F23.8°C 62.3°F16.8°C 65% 0.7 mph ESE1.1 kmh ESE 3.0 mph4.8 kmh 30.12 in1020.0 mb 0.00 in0.0 mm 0.00 in/hr0.0 mm/hr 0.00 in0.0 mm
06:30 PM 74.6°F23.7°C 62.5°F16.9°C 66% 0.2 mph SE0.3 kmh SE 2.0 mph3.2 kmh 30.12 in1020.0 mb 0.00 in0.0 mm 0.00 in/hr0.0 mm/hr 0.00 in0.0 mm
06:40 PM 74.0°F23.3°C 62.0°F16.7°C 66% 0.9 mph SSW1.4 kmh SSW 2.0 mph3.2 kmh 30.12 in1020.0 mb 0.00 in0.0 mm 0.00 in/hr0.0 mm/hr 0.00 in0.0 mm
06:50 PM 73.6°F23.1°C 62.4°F16.9°C 68% 0.8 mph NE1.3 kmh NE 1.0 mph1.6 kmh 30.12 in1020.0 mb 0.00 in0.0 mm 0.00 in/hr0.0 mm/hr 0.00 in0.0 mm
07:00 PM 73.2°F22.9°C 62.4°F16.9°C 69% 1.0 mph E1.6 kmh E 3.0 mph4.8 kmh 30.13 in1020.3 mb 0.00 in0.0 mm 0.00 in/hr0.0 mm/hr 0.00 in0.0 mm
07:10 PM 73.0°F22.8°C 62.6°F17.0°C 70% 0.9 mph E1.4 kmh E 3.0 mph4.8 kmh 30.13 in1020.3 mb 0.00 in0.0 mm 0.00 in/hr0.0 mm/hr 0.00 in0.0 mm
07:20 PM 73.0°F22.8°C 62.6°F17.0°C 70% 0.6 mph ENE1.0 kmh ENE 2.0 mph3.2 kmh 30.14 in1020.7 mb 0.00 in0.0 mm 0.00 in/hr0.0 mm/hr 0.00 in0.0 mm
07:30 PM 72.8°F22.7°C 62.0°F16.7°C 69% 0.3 mph E0.5 kmh E 1.0 mph1.6 kmh 30.14 in1020.7 mb 0.00 in0.0 mm 0.00 in/hr0.0 mm/hr 0.00 in0.0 mm
11:00 PM 69.1°F20.6°C 62.7°F17.1°C 80% Calm Calm -- 30.17 in1021.7 mb 0.00 in0.0 mm 0.00 in/hr0.0 mm/hr 0.00 in0.0 mm
11:10 PM 69.1°F20.6°C 63.0°F17.2°C 81% Calm Calm 1.0 mph1.6 kmh 30.17 in1021.7 mb 0.00 in0.0 mm 0.00 in/hr0.0 mm/hr 0.00 in0.0 mm
11:20 PM 68.9°F20.5°C 62.8°F17.1°C 81% Calm Calm -- 30.17 in1021.7 mb 0.00 in0.0 mm 0.00 in/hr0.0 mm/hr 0.00 in0.0 mm
11:30 PM 68.6°F20.3°C 62.5°F16.9°C 81% Calm Calm -- 30.17 in1021.7 mb 0.00 in0.0 mm 0.00 in/hr0.0 mm/hr 0.00 in0.0 mm
11:40 PM 68.6°F20.3°C 62.9°F17.2°C 82% Calm Calm -- 30.17 in1021.7 mb 0.00 in0.0 mm 0.00 in/hr0.0 mm/hr 0.00 in0.0 mm
11:50 PM 68.4°F20.2°C 62.7°F17.1°C 82% Calm Calm -- 30.16 in1021.3 mb 0.00 in0.0 mm 0.00 in/hr0.0 mm/hr 0.00 in0.0 mm